Аэропорт: Кадала. Чита

ICAO: UIAA

METAR:
2018/05/20 19:30
UIAA 201930Z 09005MPS 9999 SCT050CB 16/07 Q1001 R29/110070 NOSIG RMK QFE693/0924
METAR:
2018/05/20 18:24
TAF UIAA 201700Z 2018/2118 30010G18MPS 9999 SCT040CB 
      TEMPO 2018/2024 12007G15MPS 
      TEMPO 2100/2112 3100 -SHRASN BKN014CB